sensor_id;sensor_type;location;lat;lon;timestamp;P1;durP1;ratioP1;P2;durP2;ratioP2
67981;SDS011;64109;52.148;4.466;2023-02-20T00:00:39;8.70;;;2.70;;
67981;SDS011;64109;52.148;4.466;2023-02-20T00:03:06;5.90;;;2.28;;
67981;SDS011;64109;52.148;4.466;2023-02-20T00:05:32;9.00;;;3.63;;
67981;SDS011;64109;52.148;4.466;2023-02-20T00:07:58;4.82;;;2.10;;
67981;SDS011;64109;52.148;4.466;2023-02-20T00:10:24;7.90;;;2.63;;
67981;SDS011;64109;52.148;4.466;2023-02-20T00:12:51;6.97;;;2.25;;
67981;SDS011;64109;52.148;4.466;2023-02-20T00:15:17;5.15;;;3.50;;
67981;SDS011;64109;52.148;4.466;2023-02-20T00:17:44;6.93;;;2.50;;
67981;SDS011;64109;52.148;4.466;2023-02-20T00:20:17;5.70;;;1.92;;
67981;SDS011;64109;52.148;4.466;2023-02-20T00:22:43;5.28;;;3.03;;
67981;SDS011;64109;52.148;4.466;2023-02-20T00:25:09;6.78;;;2.92;;
67981;SDS011;64109;52.148;4.466;2023-02-20T00:27:35;5.65;;;1.92;;
67981;SDS011;64109;52.148;4.466;2023-02-20T00:30:01;5.90;;;2.85;;
67981;SDS011;64109;52.148;4.466;2023-02-20T00:32:27;6.10;;;2.05;;
67981;SDS011;64109;52.148;4.466;2023-02-20T00:34:53;6.13;;;2.00;;
67981;SDS011;64109;52.148;4.466;2023-02-20T00:37:19;4.82;;;2.03;;
67981;SDS011;64109;52.148;4.466;2023-02-20T00:39:45;7.43;;;2.88;;
67981;SDS011;64109;52.148;4.466;2023-02-20T00:42:11;7.78;;;2.17;;
67981;SDS011;64109;52.148;4.466;2023-02-20T00:44:37;5.38;;;2.03;;
67981;SDS011;64109;52.148;4.466;2023-02-20T00:47:03;8.13;;;2.67;;
67981;SDS011;64109;52.148;4.466;2023-02-20T00:49:29;5.85;;;2.10;;
67981;SDS011;64109;52.148;4.466;2023-02-20T00:51:55;7.22;;;2.15;;
67981;SDS011;64109;52.148;4.466;2023-02-20T00:54:21;6.78;;;2.10;;
67981;SDS011;64109;52.148;4.466;2023-02-20T00:56:47;4.72;;;2.53;;
67981;SDS011;64109;52.148;4.466;2023-02-20T00:59:13;4.47;;;1.50;;
67981;SDS011;64109;52.148;4.466;2023-02-20T01:01:39;4.90;;;1.83;;
67981;SDS011;64109;52.148;4.466;2023-02-20T01:04:05;4.68;;;2.05;;
67981;SDS011;64109;52.148;4.466;2023-02-20T01:06:30;5.82;;;2.03;;
67981;SDS011;64109;52.148;4.466;2023-02-20T01:08:57;5.95;;;1.85;;
67981;SDS011;64109;52.148;4.466;2023-02-20T01:11:23;6.40;;;1.70;;
67981;SDS011;64109;52.148;4.466;2023-02-20T01:13:49;6.88;;;1.75;;
67981;SDS011;64109;52.148;4.466;2023-02-20T01:16:14;7.28;;;1.70;;
67981;SDS011;64109;52.148;4.466;2023-02-20T01:18:40;8.88;;;2.03;;
67981;SDS011;64109;52.148;4.466;2023-02-20T01:21:06;5.82;;;1.60;;
67981;SDS011;64109;52.148;4.466;2023-02-20T01:23:32;5.45;;;1.80;;
67981;SDS011;64109;52.148;4.466;2023-02-20T01:25:58;9.25;;;2.03;;
67981;SDS011;64109;52.148;4.466;2023-02-20T01:28:24;7.80;;;2.30;;
67981;SDS011;64109;52.148;4.466;2023-02-20T01:30:50;7.50;;;1.95;;
67981;SDS011;64109;52.148;4.466;2023-02-20T01:33:16;6.93;;;1.75;;
67981;SDS011;64109;52.148;4.466;2023-02-20T01:35:42;4.18;;;1.55;;
67981;SDS011;64109;52.148;4.466;2023-02-20T01:38:08;8.27;;;2.08;;
67981;SDS011;64109;52.148;4.466;2023-02-20T01:40:34;8.45;;;1.52;;
67981;SDS011;64109;52.148;4.466;2023-02-20T01:43:01;7.30;;;1.90;;
67981;SDS011;64109;52.148;4.466;2023-02-20T01:45:29;9.50;;;1.95;;
67981;SDS011;64109;52.148;4.466;2023-02-20T01:50:41;7.03;;;1.88;;
67981;SDS011;64109;52.148;4.466;2023-02-20T01:53:09;9.13;;;2.05;;
67981;SDS011;64109;52.148;4.466;2023-02-20T01:58:03;7.75;;;2.17;;
67981;SDS011;64109;52.148;4.466;2023-02-20T02:00:30;8.85;;;2.00;;
67981;SDS011;64109;52.148;4.466;2023-02-20T02:03:01;7.40;;;1.67;;
67981;SDS011;64109;52.148;4.466;2023-02-20T02:05:29;7.55;;;1.95;;
67981;SDS011;64109;52.148;4.466;2023-02-20T02:07:55;11.77;;;2.40;;
67981;SDS011;64109;52.148;4.466;2023-02-20T02:10:27;9.68;;;3.10;;
67981;SDS011;64109;52.148;4.466;2023-02-20T02:12:54;7.63;;;1.95;;
67981;SDS011;64109;52.148;4.466;2023-02-20T02:15:21;9.45;;;2.10;;
67981;SDS011;64109;52.148;4.466;2023-02-20T02:18:07;6.80;;;2.70;;
67981;SDS011;64109;52.148;4.466;2023-02-20T02:23:18;7.10;;;2.10;;
67981;SDS011;64109;52.148;4.466;2023-02-20T02:31:49;9.55;;;2.53;;
67981;SDS011;64109;52.148;4.466;2023-02-20T02:44:12;11.85;;;1.95;;
67981;SDS011;64109;52.148;4.466;2023-02-20T02:46:44;8.65;;;1.77;;
67981;SDS011;64109;52.148;4.466;2023-02-20T02:51:53;6.20;;;2.00;;
67981;SDS011;64109;52.148;4.466;2023-02-20T02:54:21;9.20;;;2.05;;
67981;SDS011;64109;52.148;4.466;2023-02-20T02:56:50;7.95;;;2.20;;
67981;SDS011;64109;52.148;4.466;2023-02-20T02:59:19;9.13;;;1.88;;
67981;SDS011;64109;52.148;4.466;2023-02-20T03:01:52;7.78;;;1.73;;
67981;SDS011;64109;52.148;4.466;2023-02-20T03:04:19;8.48;;;2.30;;
67981;SDS011;64109;52.148;4.466;2023-02-20T03:06:50;6.50;;;1.70;;
67981;SDS011;64109;52.148;4.466;2023-02-20T03:09:22;9.48;;;2.10;;
67981;SDS011;64109;52.148;4.466;2023-02-20T03:11:50;9.77;;;2.10;;
67981;SDS011;64109;52.148;4.466;2023-02-20T03:14:21;8.80;;;2.70;;
67981;SDS011;64109;52.148;4.466;2023-02-20T03:17:23;8.13;;;1.60;;
67981;SDS011;64109;52.148;4.466;2023-02-20T03:19:53;5.72;;;1.60;;
67981;SDS011;64109;52.148;4.466;2023-02-20T03:22:22;11.07;;;1.92;;
67981;SDS011;64109;52.148;4.466;2023-02-20T03:24:50;9.27;;;1.88;;
67981;SDS011;64109;52.148;4.466;2023-02-20T03:27:24;6.40;;;2.00;;
67981;SDS011;64109;52.148;4.466;2023-02-20T03:29:51;6.38;;;1.75;;
67981;SDS011;64109;52.148;4.466;2023-02-20T03:32:19;8.05;;;2.10;;
67981;SDS011;64109;52.148;4.466;2023-02-20T03:35:06;9.60;;;1.90;;
67981;SDS011;64109;52.148;4.466;2023-02-20T03:37:52;7.97;;;2.42;;
67981;SDS011;64109;52.148;4.466;2023-02-20T03:40:39;7.13;;;1.88;;
67981;SDS011;64109;52.148;4.466;2023-02-20T03:43:23;6.95;;;1.50;;
67981;SDS011;64109;52.148;4.466;2023-02-20T03:45:52;6.45;;;1.48;;
67981;SDS011;64109;52.148;4.466;2023-02-20T03:50:53;5.88;;;1.60;;
67981;SDS011;64109;52.148;4.466;2023-02-20T03:53:19;6.00;;;1.95;;
67981;SDS011;64109;52.148;4.466;2023-02-20T03:55:46;8.23;;;1.80;;
67981;SDS011;64109;52.148;4.466;2023-02-20T03:58:13;8.25;;;2.20;;
67981;SDS011;64109;52.148;4.466;2023-02-20T04:00:41;8.55;;;2.03;;
67981;SDS011;64109;52.148;4.466;2023-02-20T04:03:11;7.05;;;1.65;;
67981;SDS011;64109;52.148;4.466;2023-02-20T04:05:41;8.63;;;1.92;;
67981;SDS011;64109;52.148;4.466;2023-02-20T04:08:09;7.43;;;2.05;;
67981;SDS011;64109;52.148;4.466;2023-02-20T04:10:41;7.03;;;1.95;;
67981;SDS011;64109;52.148;4.466;2023-02-20T04:13:08;6.82;;;1.50;;
67981;SDS011;64109;52.148;4.466;2023-02-20T04:15:34;6.20;;;1.63;;
67981;SDS011;64109;52.148;4.466;2023-02-20T04:18:02;8.95;;;1.92;;
67981;SDS011;64109;52.148;4.466;2023-02-20T04:20:29;7.35;;;1.98;;
67981;SDS011;64109;52.148;4.466;2023-02-20T04:22:56;7.35;;;1.85;;
67981;SDS011;64109;52.148;4.466;2023-02-20T04:27:49;6.72;;;1.45;;
67981;SDS011;64109;52.148;4.466;2023-02-20T04:30:15;7.10;;;1.77;;
67981;SDS011;64109;52.148;4.466;2023-02-20T04:32:41;5.03;;;1.80;;
67981;SDS011;64109;52.148;4.466;2023-02-20T04:35:09;7.18;;;2.08;;
67981;SDS011;64109;52.148;4.466;2023-02-20T04:37:37;5.30;;;1.73;;
67981;SDS011;64109;52.148;4.466;2023-02-20T04:40:03;9.75;;;1.90;;
67981;SDS011;64109;52.148;4.466;2023-02-20T04:42:29;7.85;;;1.80;;
67981;SDS011;64109;52.148;4.466;2023-02-20T04:44:55;7.47;;;2.20;;
67981;SDS011;64109;52.148;4.466;2023-02-20T04:47:21;8.18;;;2.15;;
67981;SDS011;64109;52.148;4.466;2023-02-20T04:49:47;5.75;;;1.63;;
67981;SDS011;64109;52.148;4.466;2023-02-20T04:52:13;8.70;;;2.03;;
67981;SDS011;64109;52.148;4.466;2023-02-20T04:54:39;6.25;;;1.92;;
67981;SDS011;64109;52.148;4.466;2023-02-20T04:57:05;5.45;;;1.75;;
67981;SDS011;64109;52.148;4.466;2023-02-20T04:59:31;9.38;;;2.38;;
67981;SDS011;64109;52.148;4.466;2023-02-20T05:01:57;4.85;;;1.92;;
67981;SDS011;64109;52.148;4.466;2023-02-20T05:04:25;5.13;;;2.20;;
67981;SDS011;64109;52.148;4.466;2023-02-20T05:06:52;6.03;;;1.88;;
67981;SDS011;64109;52.148;4.466;2023-02-20T05:09:18;5.43;;;1.85;;
67981;SDS011;64109;52.148;4.466;2023-02-20T05:11:45;7.28;;;1.95;;
67981;SDS011;64109;52.148;4.466;2023-02-20T05:14:11;5.00;;;1.88;;
67981;SDS011;64109;52.148;4.466;2023-02-20T05:16:37;7.28;;;1.98;;
67981;SDS011;64109;52.148;4.466;2023-02-20T05:19:03;7.88;;;1.85;;
67981;SDS011;64109;52.148;4.466;2023-02-20T05:21:30;7.13;;;1.65;;
67981;SDS011;64109;52.148;4.466;2023-02-20T05:24:14;5.57;;;3.05;;
67981;SDS011;64109;52.148;4.466;2023-02-20T05:26:40;7.60;;;1.98;;
67981;SDS011;64109;52.148;4.466;2023-02-20T05:29:06;6.70;;;2.88;;
67981;SDS011;64109;52.148;4.466;2023-02-20T05:31:34;8.98;;;2.00;;
67981;SDS011;64109;52.148;4.466;2023-02-20T05:34:00;6.95;;;1.80;;
67981;SDS011;64109;52.148;4.466;2023-02-20T05:36:26;7.05;;;2.00;;
67981;SDS011;64109;52.148;4.466;2023-02-20T05:38:52;7.20;;;2.15;;
67981;SDS011;64109;52.148;4.466;2023-02-20T05:41:18;7.32;;;2.25;;
67981;SDS011;64109;52.148;4.466;2023-02-20T05:43:44;8.65;;;2.55;;
67981;SDS011;64109;52.148;4.466;2023-02-20T05:46:12;7.20;;;1.98;;
67981;SDS011;64109;52.148;4.466;2023-02-20T05:48:38;7.05;;;2.10;;
67981;SDS011;64109;52.148;4.466;2023-02-20T05:51:04;5.72;;;2.03;;
67981;SDS011;64109;52.148;4.466;2023-02-20T05:53:31;7.82;;;1.92;;
67981;SDS011;64109;52.148;4.466;2023-02-20T05:55:57;5.63;;;2.10;;
67981;SDS011;64109;52.148;4.466;2023-02-20T05:58:23;8.07;;;3.20;;
67981;SDS011;64109;52.148;4.466;2023-02-20T06:00:50;7.68;;;2.15;;
67981;SDS011;64109;52.148;4.466;2023-02-20T06:03:16;7.68;;;2.08;;
67981;SDS011;64109;52.148;4.466;2023-02-20T06:05:42;6.25;;;2.20;;
67981;SDS011;64109;52.148;4.466;2023-02-20T06:08:08;6.68;;;2.13;;
67981;SDS011;64109;52.148;4.466;2023-02-20T06:10:34;9.80;;;2.00;;
67981;SDS011;64109;52.148;4.466;2023-02-20T06:13:00;6.97;;;2.25;;
67981;SDS011;64109;52.148;4.466;2023-02-20T06:15:26;7.35;;;2.20;;
67981;SDS011;64109;52.148;4.466;2023-02-20T06:17:52;6.65;;;1.98;;
67981;SDS011;64109;52.148;4.466;2023-02-20T06:20:18;8.20;;;3.17;;
67981;SDS011;64109;52.148;4.466;2023-02-20T06:22:46;6.38;;;2.00;;
67981;SDS011;64109;52.148;4.466;2023-02-20T06:25:12;6.63;;;2.10;;
67981;SDS011;64109;52.148;4.466;2023-02-20T06:27:38;7.10;;;2.28;;
67981;SDS011;64109;52.148;4.466;2023-02-20T06:30:04;5.72;;;1.90;;
67981;SDS011;64109;52.148;4.466;2023-02-20T06:32:30;8.43;;;2.58;;
67981;SDS011;64109;52.148;4.466;2023-02-20T06:34:56;6.85;;;2.00;;
67981;SDS011;64109;52.148;4.466;2023-02-20T06:37:22;9.07;;;3.22;;
67981;SDS011;64109;52.148;4.466;2023-02-20T06:39:48;9.93;;;3.30;;
67981;SDS011;64109;52.148;4.466;2023-02-20T06:42:14;8.48;;;4.35;;
67981;SDS011;64109;52.148;4.466;2023-02-20T06:44:41;8.52;;;2.90;;
67981;SDS011;64109;52.148;4.466;2023-02-20T06:47:07;9.32;;;2.70;;
67981;SDS011;64109;52.148;4.466;2023-02-20T06:49:36;5.65;;;2.58;;
67981;SDS011;64109;52.148;4.466;2023-02-20T06:52:03;6.65;;;2.67;;
67981;SDS011;64109;52.148;4.466;2023-02-20T06:54:29;12.05;;;3.53;;
67981;SDS011;64109;52.148;4.466;2023-02-20T06:56:55;11.90;;;3.45;;
67981;SDS011;64109;52.148;4.466;2023-02-20T06:59:21;11.13;;;3.17;;
67981;SDS011;64109;52.148;4.466;2023-02-20T07:01:47;12.77;;;3.60;;
67981;SDS011;64109;52.148;4.466;2023-02-20T07:04:15;12.02;;;3.03;;
67981;SDS011;64109;52.148;4.466;2023-02-20T07:06:41;10.00;;;2.85;;
67981;SDS011;64109;52.148;4.466;2023-02-20T07:09:07;10.48;;;3.00;;
67981;SDS011;64109;52.148;4.466;2023-02-20T07:11:33;6.55;;;2.20;;
67981;SDS011;64109;52.148;4.466;2023-02-20T07:13:59;7.88;;;2.60;;
67981;SDS011;64109;52.148;4.466;2023-02-20T07:16:25;12.25;;;3.30;;
67981;SDS011;64109;52.148;4.466;2023-02-20T07:18:51;10.07;;;2.40;;
67981;SDS011;64109;52.148;4.466;2023-02-20T07:21:17;7.18;;;2.50;;
67981;SDS011;64109;52.148;4.466;2023-02-20T07:23:43;5.00;;;1.55;;
67981;SDS011;64109;52.148;4.466;2023-02-20T07:26:16;7.90;;;2.10;;
67981;SDS011;64109;52.148;4.466;2023-02-20T07:28:43;5.10;;;2.00;;
67981;SDS011;64109;52.148;4.466;2023-02-20T07:31:09;9.15;;;1.90;;
67981;SDS011;64109;52.148;4.466;2023-02-20T07:33:35;7.40;;;2.20;;
67981;SDS011;64109;52.148;4.466;2023-02-20T07:36:01;6.10;;;1.70;;
67981;SDS011;64109;52.148;4.466;2023-02-20T07:38:27;5.65;;;2.10;;
67981;SDS011;64109;52.148;4.466;2023-02-20T07:40:53;8.65;;;2.75;;
67981;SDS011;64109;52.148;4.466;2023-02-20T07:43:19;6.80;;;2.13;;
67981;SDS011;64109;52.148;4.466;2023-02-20T07:45:46;8.23;;;3.22;;
67981;SDS011;64109;52.148;4.466;2023-02-20T07:48:12;8.98;;;2.60;;
67981;SDS011;64109;52.148;4.466;2023-02-20T07:50:38;6.70;;;2.15;;
67981;SDS011;64109;52.148;4.466;2023-02-20T07:53:04;6.57;;;2.13;;
67981;SDS011;64109;52.148;4.466;2023-02-20T07:55:30;2.97;;;1.77;;
67981;SDS011;64109;52.148;4.466;2023-02-20T07:57:56;7.35;;;2.25;;
67981;SDS011;64109;52.148;4.466;2023-02-20T08:00:23;5.65;;;2.00;;
67981;SDS011;64109;52.148;4.466;2023-02-20T08:02:49;9.00;;;2.42;;
67981;SDS011;64109;52.148;4.466;2023-02-20T08:05:15;6.68;;;2.10;;
67981;SDS011;64109;52.148;4.466;2023-02-20T08:07:45;7.45;;;2.55;;
67981;SDS011;64109;52.148;4.466;2023-02-20T08:10:11;8.73;;;2.33;;
67981;SDS011;64109;52.148;4.466;2023-02-20T08:12:37;5.50;;;2.00;;
67981;SDS011;64109;52.148;4.466;2023-02-20T08:15:03;5.25;;;2.58;;
67981;SDS011;64109;52.148;4.466;2023-02-20T08:17:29;6.43;;;2.40;;
67981;SDS011;64109;52.148;4.466;2023-02-20T08:19:55;8.40;;;2.15;;
67981;SDS011;64109;52.148;4.466;2023-02-20T08:22:21;5.95;;;1.88;;
67981;SDS011;64109;52.148;4.466;2023-02-20T08:24:47;9.20;;;2.30;;
67981;SDS011;64109;52.148;4.466;2023-02-20T08:27:13;7.57;;;2.38;;
67981;SDS011;64109;52.148;4.466;2023-02-20T08:29:39;7.20;;;2.15;;
67981;SDS011;64109;52.148;4.466;2023-02-20T08:32:05;8.77;;;2.60;;
67981;SDS011;64109;52.148;4.466;2023-02-20T08:34:31;5.28;;;2.17;;
67981;SDS011;64109;52.148;4.466;2023-02-20T08:36:57;7.53;;;3.33;;
67981;SDS011;64109;52.148;4.466;2023-02-20T08:39:23;6.97;;;2.17;;
67981;SDS011;64109;52.148;4.466;2023-02-20T08:41:50;7.55;;;1.98;;
67981;SDS011;64109;52.148;4.466;2023-02-20T08:44:16;5.38;;;1.90;;
67981;SDS011;64109;52.148;4.466;2023-02-20T08:46:46;8.65;;;2.20;;
67981;SDS011;64109;52.148;4.466;2023-02-20T08:49:12;7.25;;;2.38;;
67981;SDS011;64109;52.148;4.466;2023-02-20T08:51:38;6.10;;;2.13;;
67981;SDS011;64109;52.148;4.466;2023-02-20T08:54:04;6.95;;;1.88;;
67981;SDS011;64109;52.148;4.466;2023-02-20T08:56:30;5.68;;;1.85;;
67981;SDS011;64109;52.148;4.466;2023-02-20T08:58:56;8.10;;;2.70;;
67981;SDS011;64109;52.148;4.466;2023-02-20T09:01:22;4.68;;;1.98;;
67981;SDS011;64109;52.148;4.466;2023-02-20T09:03:49;10.68;;;3.40;;
67981;SDS011;64109;52.148;4.466;2023-02-20T09:06:15;11.27;;;2.33;;
67981;SDS011;64109;52.148;4.466;2023-02-20T09:08:41;6.43;;;1.80;;
67981;SDS011;64109;52.148;4.466;2023-02-20T09:11:07;5.95;;;1.60;;
67981;SDS011;64109;52.148;4.466;2023-02-20T09:13:40;7.97;;;2.38;;
67981;SDS011;64109;52.148;4.466;2023-02-20T09:16:06;5.75;;;1.40;;
67981;SDS011;64109;52.148;4.466;2023-02-20T09:18:31;3.92;;;1.70;;
67981;SDS011;64109;52.148;4.466;2023-02-20T09:20:58;5.88;;;1.80;;
67981;SDS011;64109;52.148;4.466;2023-02-20T09:23:24;6.05;;;1.80;;
67981;SDS011;64109;52.148;4.466;2023-02-20T09:25:51;8.93;;;2.45;;
67981;SDS011;64109;52.148;4.466;2023-02-20T09:28:17;6.50;;;1.90;;
67981;SDS011;64109;52.148;4.466;2023-02-20T09:30:43;5.80;;;1.95;;
67981;SDS011;64109;52.148;4.466;2023-02-20T09:33:10;7.07;;;1.63;;
67981;SDS011;64109;52.148;4.466;2023-02-20T09:35:36;5.57;;;1.75;;
67981;SDS011;64109;52.148;4.466;2023-02-20T09:38:02;6.50;;;3.17;;
67981;SDS011;64109;52.148;4.466;2023-02-20T09:40:30;6.60;;;1.67;;
67981;SDS011;64109;52.148;4.466;2023-02-20T09:43:00;7.32;;;1.38;;
67981;SDS011;64109;52.148;4.466;2023-02-20T09:45:31;7.07;;;1.60;;
67981;SDS011;64109;52.148;4.466;2023-02-20T09:53:04;5.25;;;1.73;;
67981;SDS011;64109;52.148;4.466;2023-02-20T09:55:35;5.75;;;1.67;;
67981;SDS011;64109;52.148;4.466;2023-02-20T09:58:03;5.38;;;2.42;;
67981;SDS011;64109;52.148;4.466;2023-02-20T10:00:30;6.78;;;3.10;;
67981;SDS011;64109;52.148;4.466;2023-02-20T10:03:01;4.75;;;1.52;;
67981;SDS011;64109;52.148;4.466;2023-02-20T10:05:31;6.57;;;1.52;;
67981;SDS011;64109;52.148;4.466;2023-02-20T10:07:57;5.25;;;1.60;;
67981;SDS011;64109;52.148;4.466;2023-02-20T10:10:28;7.45;;;1.75;;
67981;SDS011;64109;52.148;4.466;2023-02-20T10:17:56;6.45;;;1.98;;
67981;SDS011;64109;52.148;4.466;2023-02-20T10:25:42;3.70;;;1.20;;
67981;SDS011;64109;52.148;4.466;2023-02-20T10:28:10;3.38;;;2.53;;
67981;SDS011;64109;52.148;4.466;2023-02-20T10:30:40;6.10;;;1.65;;
67981;SDS011;64109;52.148;4.466;2023-02-20T10:33:19;4.93;;;1.60;;
67981;SDS011;64109;52.148;4.466;2023-02-20T10:36:01;4.03;;;2.05;;
67981;SDS011;64109;52.148;4.466;2023-02-20T10:38:33;4.65;;;1.60;;
67981;SDS011;64109;52.148;4.466;2023-02-20T10:41:02;5.78;;;1.52;;
67981;SDS011;64109;52.148;4.466;2023-02-20T10:48:29;7.93;;;1.23;;
67981;SDS011;64109;52.148;4.466;2023-02-20T10:51:10;5.57;;;1.80;;
67981;SDS011;64109;52.148;4.466;2023-02-20T10:53:45;5.22;;;2.25;;
67981;SDS011;64109;52.148;4.466;2023-02-20T10:56:30;6.85;;;2.10;;
67981;SDS011;64109;52.148;4.466;2023-02-20T10:59:07;5.85;;;1.92;;
67981;SDS011;64109;52.148;4.466;2023-02-20T11:01:35;6.53;;;3.10;;
67981;SDS011;64109;52.148;4.466;2023-02-20T11:04:05;6.28;;;1.90;;
67981;SDS011;64109;52.148;4.466;2023-02-20T11:06:44;3.55;;;1.55;;
67981;SDS011;64109;52.148;4.466;2023-02-20T11:09:11;6.60;;;3.00;;
67981;SDS011;64109;52.148;4.466;2023-02-20T11:11:43;3.38;;;1.50;;
67981;SDS011;64109;52.148;4.466;2023-02-20T11:14:20;6.53;;;1.80;;
67981;SDS011;64109;52.148;4.466;2023-02-20T11:16:55;5.70;;;1.80;;
67981;SDS011;64109;52.148;4.466;2023-02-20T11:19:31;7.00;;;2.17;;
67981;SDS011;64109;52.148;4.466;2023-02-20T11:21:58;7.03;;;2.00;;
67981;SDS011;64109;52.148;4.466;2023-02-20T11:24:30;3.83;;;1.55;;
67981;SDS011;64109;52.148;4.466;2023-02-20T11:27:00;5.40;;;1.98;;
67981;SDS011;64109;52.148;4.466;2023-02-20T11:29:30;5.43;;;1.83;;
67981;SDS011;64109;52.148;4.466;2023-02-20T11:32:13;4.18;;;1.60;;
67981;SDS011;64109;52.148;4.466;2023-02-20T11:34:39;4.57;;;1.65;;
67981;SDS011;64109;52.148;4.466;2023-02-20T11:37:05;4.53;;;1.13;;
67981;SDS011;64109;52.148;4.466;2023-02-20T11:39:31;3.45;;;1.50;;
67981;SDS011;64109;52.148;4.466;2023-02-20T11:42:11;4.13;;;1.38;;
67981;SDS011;64109;52.148;4.466;2023-02-20T11:44:39;3.97;;;1.80;;
67981;SDS011;64109;52.148;4.466;2023-02-20T11:47:25;3.42;;;1.27;;
67981;SDS011;64109;52.148;4.466;2023-02-20T11:50:14;3.67;;;1.30;;
67981;SDS011;64109;52.148;4.466;2023-02-20T11:52:38;4.65;;;1.27;;
67981;SDS011;64109;52.148;4.466;2023-02-20T11:55:20;5.25;;;1.42;;
67981;SDS011;64109;52.148;4.466;2023-02-20T11:57:47;3.85;;;1.30;;
67981;SDS011;64109;52.148;4.466;2023-02-20T12:00:48;5.05;;;1.30;;
67981;SDS011;64109;52.148;4.466;2023-02-20T12:05:37;4.10;;;2.20;;
67981;SDS011;64109;52.148;4.466;2023-02-20T12:08:17;3.55;;;1.33;;
67981;SDS011;64109;52.148;4.466;2023-02-20T12:10:45;4.72;;;1.50;;
67981;SDS011;64109;52.148;4.466;2023-02-20T12:13:15;4.50;;;1.40;;
67981;SDS011;64109;52.148;4.466;2023-02-20T12:15:42;5.07;;;1.45;;
67981;SDS011;64109;52.148;4.466;2023-02-20T12:20:36;5.00;;;1.40;;
67981;SDS011;64109;52.148;4.466;2023-02-20T12:25:36;4.93;;;1.25;;
67981;SDS011;64109;52.148;4.466;2023-02-20T12:30:43;3.38;;;1.40;;
67981;SDS011;64109;52.148;4.466;2023-02-20T12:35:58;4.07;;;1.60;;
67981;SDS011;64109;52.148;4.466;2023-02-20T12:46:22;3.90;;;1.20;;
67981;SDS011;64109;52.148;4.466;2023-02-20T12:51:37;3.50;;;1.10;;
67981;SDS011;64109;52.148;4.466;2023-02-20T12:54:49;4.63;;;2.13;;
67981;SDS011;64109;52.148;4.466;2023-02-20T12:59:56;3.90;;;1.02;;
67981;SDS011;64109;52.148;4.466;2023-02-20T13:04:53;6.10;;;1.45;;
67981;SDS011;64109;52.148;4.466;2023-02-20T13:07:42;6.78;;;1.00;;
67981;SDS011;64109;52.148;4.466;2023-02-20T13:10:07;4.75;;;1.52;;
67981;SDS011;64109;52.148;4.466;2023-02-20T13:12:37;3.50;;;1.05;;
67981;SDS011;64109;52.148;4.466;2023-02-20T13:17:32;3.05;;;1.20;;
67981;SDS011;64109;52.148;4.466;2023-02-20T13:22:28;3.60;;;1.08;;
67981;SDS011;64109;52.148;4.466;2023-02-20T13:24:54;5.60;;;1.05;;
67981;SDS011;64109;52.148;4.466;2023-02-20T13:27:40;5.30;;;1.30;;
67981;SDS011;64109;52.148;4.466;2023-02-20T13:30:16;3.20;;;1.40;;
67981;SDS011;64109;52.148;4.466;2023-02-20T13:32:43;3.28;;;0.98;;
67981;SDS011;64109;52.148;4.466;2023-02-20T13:37:54;3.03;;;1.30;;
67981;SDS011;64109;52.148;4.466;2023-02-20T13:43:03;2.58;;;0.80;;
67981;SDS011;64109;52.148;4.466;2023-02-20T13:45:36;1.85;;;0.80;;
67981;SDS011;64109;52.148;4.466;2023-02-20T13:50:47;4.72;;;1.02;;
67981;SDS011;64109;52.148;4.466;2023-02-20T13:53:13;3.85;;;0.95;;
67981;SDS011;64109;52.148;4.466;2023-02-20T13:55:40;2.30;;;0.90;;
67981;SDS011;64109;52.148;4.466;2023-02-20T14:01:07;2.83;;;0.90;;
67981;SDS011;64109;52.148;4.466;2023-02-20T14:03:27;3.95;;;1.98;;
67981;SDS011;64109;52.148;4.466;2023-02-20T14:06:09;2.35;;;0.93;;
67981;SDS011;64109;52.148;4.466;2023-02-20T14:08:37;2.58;;;1.75;;
67981;SDS011;64109;52.148;4.466;2023-02-20T14:13:48;2.65;;;1.73;;
67981;SDS011;64109;52.148;4.466;2023-02-20T14:16:22;2.60;;;1.30;;
67981;SDS011;64109;52.148;4.466;2023-02-20T14:18:48;3.35;;;1.27;;
67981;SDS011;64109;52.148;4.466;2023-02-20T14:21:15;2.58;;;1.23;;
67981;SDS011;64109;52.148;4.466;2023-02-20T14:23:41;3.30;;;1.00;;
67981;SDS011;64109;52.148;4.466;2023-02-20T14:28:54;2.92;;;0.90;;
67981;SDS011;64109;52.148;4.466;2023-02-20T14:31:22;2.83;;;1.05;;
67981;SDS011;64109;52.148;4.466;2023-02-20T14:33:50;2.80;;;0.90;;
67981;SDS011;64109;52.148;4.466;2023-02-20T14:36:29;2.30;;;0.80;;
67981;SDS011;64109;52.148;4.466;2023-02-20T14:41:54;3.35;;;2.58;;
67981;SDS011;64109;52.148;4.466;2023-02-20T14:44:21;4.07;;;0.77;;
67981;SDS011;64109;52.148;4.466;2023-02-20T14:46:49;2.53;;;1.00;;
67981;SDS011;64109;52.148;4.466;2023-02-20T14:49:22;1.65;;;0.90;;
67981;SDS011;64109;52.148;4.466;2023-02-20T14:51:48;3.50;;;1.20;;
67981;SDS011;64109;52.148;4.466;2023-02-20T14:54:19;2.63;;;1.05;;
67981;SDS011;64109;52.148;4.466;2023-02-20T14:56:45;2.42;;;0.82;;
67981;SDS011;64109;52.148;4.466;2023-02-20T14:59:31;2.83;;;1.00;;
67981;SDS011;64109;52.148;4.466;2023-02-20T15:04:26;3.55;;;0.93;;
67981;SDS011;64109;52.148;4.466;2023-02-20T15:06:53;3.85;;;1.02;;
67981;SDS011;64109;52.148;4.466;2023-02-20T15:09:19;4.80;;;0.80;;
67981;SDS011;64109;52.148;4.466;2023-02-20T15:11:50;2.95;;;1.65;;
67981;SDS011;64109;52.148;4.466;2023-02-20T15:14:26;1.83;;;0.80;;
67981;SDS011;64109;52.148;4.466;2023-02-20T15:17:35;2.97;;;1.08;;
67981;SDS011;64109;52.148;4.466;2023-02-20T15:19:42;3.20;;;1.20;;
67981;SDS011;64109;52.148;4.466;2023-02-20T15:22:24;3.42;;;1.10;;
67981;SDS011;64109;52.148;4.466;2023-02-20T15:24:50;1.70;;;0.80;;
67981;SDS011;64109;52.148;4.466;2023-02-20T15:27:20;3.22;;;2.03;;
67981;SDS011;64109;52.148;4.466;2023-02-20T15:30:05;3.35;;;1.30;;
67981;SDS011;64109;52.148;4.466;2023-02-20T15:32:31;2.80;;;0.80;;
67981;SDS011;64109;52.148;4.466;2023-02-20T15:34:57;3.88;;;1.67;;
67981;SDS011;64109;52.148;4.466;2023-02-20T15:37:27;2.72;;;0.90;;
67981;SDS011;64109;52.148;4.466;2023-02-20T15:39:53;2.20;;;0.98;;
67981;SDS011;64109;52.148;4.466;2023-02-20T15:42:20;2.75;;;1.83;;
67981;SDS011;64109;52.148;4.466;2023-02-20T15:44:47;4.07;;;1.80;;
67981;SDS011;64109;52.148;4.466;2023-02-20T15:47:13;2.85;;;1.15;;
67981;SDS011;64109;52.148;4.466;2023-02-20T15:49:39;3.55;;;1.00;;
67981;SDS011;64109;52.148;4.466;2023-02-20T15:52:06;4.88;;;1.00;;
67981;SDS011;64109;52.148;4.466;2023-02-20T15:54:32;3.45;;;1.08;;
67981;SDS011;64109;52.148;4.466;2023-02-20T15:56:59;3.30;;;1.05;;
67981;SDS011;64109;52.148;4.466;2023-02-20T15:59:25;2.85;;;0.80;;
67981;SDS011;64109;52.148;4.466;2023-02-20T16:01:51;2.38;;;0.90;;
67981;SDS011;64109;52.148;4.466;2023-02-20T16:04:17;2.63;;;0.90;;
67981;SDS011;64109;52.148;4.466;2023-02-20T16:06:43;6.15;;;1.48;;
67981;SDS011;64109;52.148;4.466;2023-02-20T16:09:09;3.97;;;1.00;;
67981;SDS011;64109;52.148;4.466;2023-02-20T16:11:39;3.63;;;1.10;;
67981;SDS011;64109;52.148;4.466;2023-02-20T16:14:06;3.08;;;1.15;;
67981;SDS011;64109;52.148;4.466;2023-02-20T16:16:33;3.83;;;1.00;;
67981;SDS011;64109;52.148;4.466;2023-02-20T16:19:00;3.58;;;0.82;;
67981;SDS011;64109;52.148;4.466;2023-02-20T16:21:26;2.50;;;0.90;;
67981;SDS011;64109;52.148;4.466;2023-02-20T16:23:52;3.60;;;1.10;;
67981;SDS011;64109;52.148;4.466;2023-02-20T16:26:19;4.10;;;1.17;;
67981;SDS011;64109;52.148;4.466;2023-02-20T16:28:46;3.05;;;0.90;;
67981;SDS011;64109;52.148;4.466;2023-02-20T16:31:15;3.53;;;1.40;;
67981;SDS011;64109;52.148;4.466;2023-02-20T16:33:41;3.78;;;1.10;;
67981;SDS011;64109;52.148;4.466;2023-02-20T16:36:07;4.85;;;1.05;;
67981;SDS011;64109;52.148;4.466;2023-02-20T16:38:33;3.00;;;1.15;;
67981;SDS011;64109;52.148;4.466;2023-02-20T16:40:59;2.50;;;0.98;;
67981;SDS011;64109;52.148;4.466;2023-02-20T16:43:27;2.58;;;0.90;;